createdAt,value
2018-04-29T00:01:11.211Z,12.77
2018-04-29T00:06:12.511Z,18.90
2018-04-29T00:11:13.872Z,14.03
2018-04-29T00:16:15.929Z,11.40
2018-04-29T00:21:17.239Z,19.30
2018-04-29T00:26:18.558Z,12.73
2018-04-29T00:31:20.605Z,16.70
2018-04-29T00:36:21.931Z,19.63
2018-04-29T00:41:23.265Z,18.90
2018-04-29T00:46:24.575Z,21.33
2018-04-29T00:51:44.113Z,14.80
2018-04-29T00:56:45.406Z,17.17
2018-04-29T01:01:46.713Z,14.10
2018-04-29T01:06:48.039Z,16.33
2018-04-29T01:11:49.337Z,19.83
2018-04-29T01:16:50.646Z,20.07
2018-04-29T01:21:51.953Z,16.73
2018-04-29T01:26:53.282Z,13.83
2018-04-29T01:31:54.799Z,15.83
2018-04-29T01:36:56.105Z,13.40
2018-04-29T01:41:57.441Z,18.13
2018-04-29T01:46:58.766Z,14.00
2018-04-29T01:52:00.056Z,17.13
2018-04-29T01:57:01.375Z,15.00
2018-04-29T02:02:02.714Z,13.33
2018-04-29T02:07:04.798Z,13.70
2018-04-29T02:12:06.865Z,15.23
2018-04-29T02:17:08.158Z,14.77
2018-04-29T02:22:09.462Z,15.37
2018-04-29T02:27:10.777Z,16.93
2018-04-29T02:32:12.838Z,14.03
2018-04-29T02:37:14.201Z,20.20
2018-04-29T02:42:15.506Z,15.87
2018-04-29T02:47:16.798Z,14.20
2018-04-29T02:52:18.098Z,15.20
2018-04-29T02:57:19.389Z,14.87
2018-04-29T03:02:20.708Z,16.60
2018-04-29T03:07:22.212Z,16.73
2018-04-29T03:12:23.681Z,16.47
2018-04-29T03:17:25.138Z,14.33
2018-04-29T03:22:26.657Z,15.90
2018-04-29T03:27:28.171Z,15.40
2018-04-29T03:32:29.653Z,17.83
2018-04-29T03:37:30.955Z,18.73
2018-04-29T03:42:32.273Z,14.93
2018-04-29T03:47:33.629Z,16.77
2018-04-29T03:52:34.934Z,14.87
2018-04-29T03:57:55.374Z,18.67
2018-04-29T04:03:14.994Z,14.53
2018-04-29T04:08:17.018Z,14.27
2018-04-29T04:13:18.527Z,14.50
2018-04-29T04:18:19.841Z,19.80
2018-04-29T04:23:21.142Z,16.60
2018-04-29T04:28:22.446Z,15.93
2018-04-29T04:33:23.762Z,14.40
2018-04-29T04:38:25.805Z,12.53
2018-04-29T04:43:27.100Z,16.20
2018-04-29T04:48:28.437Z,16.50
2018-04-29T04:53:30.468Z,18.67
2018-04-29T04:58:31.765Z,16.57
2018-04-29T05:03:33.072Z,15.27
2018-04-29T05:08:34.389Z,13.50
2018-04-29T05:13:35.708Z,16.63
2018-04-29T05:18:37.012Z,14.83
2018-04-29T05:23:38.330Z,13.60
2018-04-29T05:28:39.645Z,22.93
2018-04-29T05:33:40.946Z,16.53
2018-04-29T05:38:42.243Z,15.30
2018-04-29T05:43:43.541Z,13.07
2018-04-29T05:48:44.851Z,18.50
2018-04-29T05:53:46.169Z,10.27
2018-04-29T05:58:47.486Z,14.00
2018-04-29T06:03:49.617Z,17.63
2018-04-29T06:08:51.698Z,13.73
2018-04-29T06:13:52.989Z,13.60
2018-04-29T06:18:54.303Z,16.73
2018-04-29T06:23:55.618Z,16.67
2018-04-29T06:28:56.917Z,18.40
2018-04-29T06:33:58.225Z,15.07
2018-04-29T06:38:59.525Z,13.40
2018-04-29T06:44:00.839Z,18.23
2018-04-29T06:49:02.930Z,19.23
2018-04-29T06:54:04.337Z,15.63
2018-04-29T06:59:06.436Z,16.97
2018-04-29T07:04:07.757Z,14.87
2018-04-29T07:09:09.077Z,13.90
2018-04-29T07:14:10.507Z,12.27
2018-04-29T07:19:11.774Z,13.30
2018-04-29T07:24:13.089Z,15.47
2018-04-29T07:29:15.139Z,12.93
2018-04-29T07:34:16.470Z,11.27
2018-04-29T07:39:17.764Z,13.40
2018-04-29T07:44:19.827Z,10.20
2018-04-29T07:49:21.222Z,7.03
2018-04-29T07:54:22.779Z,11.97
2018-04-29T07:59:24.149Z,9.67
2018-04-29T08:04:25.562Z,10.93
2018-04-29T08:09:26.890Z,8.67
2018-04-29T08:14:28.214Z,13.30
2018-04-29T08:19:30.552Z,9.53
2018-04-29T08:24:32.192Z,11.23
2018-04-29T08:29:33.689Z,16.77
2018-04-29T08:34:35.011Z,7.70
2018-04-29T08:39:37.118Z,10.30
2018-04-29T08:44:39.202Z,8.63
2018-04-29T08:49:40.519Z,9.33
2018-04-29T08:54:42.578Z,11.43
2018-04-29T08:59:43.912Z,13.13
2018-04-29T09:04:46.019Z,12.57
2018-04-29T09:09:48.078Z,11.23
2018-04-29T09:14:49.406Z,16.40
2018-04-29T09:19:50.726Z,14.00
2018-04-29T09:24:52.202Z,13.43
2018-04-29T09:29:53.611Z,10.80
2018-04-29T09:34:54.929Z,8.40
2018-04-29T09:39:56.219Z,7.73
2018-04-29T09:44:57.555Z,9.97
2018-04-29T09:49:59.636Z,14.40
2018-04-29T09:55:00.947Z,8.00
2018-04-29T10:00:03.055Z,9.27
2018-04-29T10:10:34.402Z,10.63
2018-04-29T10:15:36.634Z,10.57
2018-04-29T10:20:37.934Z,9.97
2018-04-29T10:25:39.239Z,8.73
2018-04-29T10:30:40.578Z,8.10
2018-04-29T10:35:41.981Z,16.47
2018-04-29T10:40:43.394Z,11.67
2018-04-29T10:45:44.707Z,9.80
2018-04-29T10:50:46.050Z,10.50
2018-04-29T10:55:48.111Z,9.80
2018-04-29T11:00:49.428Z,11.80
2018-04-29T11:05:50.752Z,13.87
2018-04-29T11:10:52.127Z,9.73
2018-04-29T11:15:54.234Z,7.77
2018-04-29T11:20:57.725Z,10.00
2018-04-29T11:25:59.825Z,11.73
2018-04-29T11:31:02.063Z,8.03
2018-04-29T11:36:03.990Z,8.37
2018-04-29T11:41:05.366Z,14.97
2018-04-29T11:46:06.775Z,12.70
2018-04-29T11:51:08.830Z,11.00
2018-04-29T11:56:10.156Z,10.47
2018-04-29T12:01:11.522Z,14.53
2018-04-29T12:06:13.691Z,9.33
2018-04-29T12:11:15.248Z,11.07
2018-04-29T12:16:17.524Z,10.43
2018-04-29T12:21:18.845Z,13.73
2018-04-29T12:26:20.961Z,5.37
2018-04-29T12:31:22.280Z,10.03
2018-04-29T12:36:23.630Z,15.53
2018-04-29T12:41:24.946Z,11.13
2018-04-29T12:46:27.026Z,7.73
2018-04-29T12:51:28.365Z,24.37
2018-04-29T12:56:29.707Z,7.23
2018-04-29T13:01:31.031Z,9.20
2018-04-29T13:06:32.360Z,11.30
2018-04-29T13:11:33.677Z,11.60
2018-04-29T13:16:34.998Z,7.10
2018-04-29T13:21:36.381Z,11.13
2018-04-29T13:26:38.458Z,3.53
2018-04-29T13:31:39.776Z,8.40
2018-04-29T13:36:41.825Z,7.10
2018-04-29T13:41:43.169Z,7.93
2018-04-29T13:46:45.314Z,8.13
2018-04-29T13:51:46.621Z,9.13
2018-04-29T13:56:47.949Z,5.93
2018-04-29T14:01:49.297Z,8.40
2018-04-29T14:06:50.610Z,5.07
2018-04-29T14:11:51.951Z,5.20
2018-04-29T14:16:53.299Z,9.30
2018-04-29T14:21:54.632Z,11.40
2018-04-29T14:26:55.982Z,10.87
2018-04-29T14:31:58.111Z,5.63
2018-04-29T14:36:59.439Z,11.07
2018-04-29T14:42:00.761Z,4.70
2018-04-29T14:47:02.125Z,7.80
2018-04-29T14:52:03.441Z,3.90
2018-04-29T14:57:05.522Z,6.43
2018-04-29T15:02:06.864Z,9.00
2018-04-29T15:07:08.196Z,3.37
2018-04-29T15:12:09.525Z,5.20
2018-04-29T15:17:11.598Z,4.70
2018-04-29T15:22:12.942Z,4.93
2018-04-29T15:27:14.253Z,3.00
2018-04-29T15:32:15.578Z,5.87
2018-04-29T15:37:16.915Z,8.00
2018-04-29T15:42:18.337Z,5.37
2018-04-29T15:47:19.654Z,4.00
2018-04-29T15:52:21.009Z,5.50
2018-04-29T15:57:22.341Z,5.13
2018-04-29T16:02:24.386Z,5.03
2018-04-29T16:07:25.719Z,3.07
2018-04-29T16:12:27.034Z,2.80
2018-04-29T16:17:29.092Z,3.97
2018-04-29T16:22:30.423Z,3.60
2018-04-29T16:27:31.736Z,3.23
2018-04-29T16:32:33.070Z,3.63
2018-04-29T16:37:34.409Z,5.20
2018-04-29T16:42:35.835Z,5.37
2018-04-29T16:47:37.143Z,4.57
2018-04-29T16:52:38.462Z,5.40
2018-04-29T16:57:40.538Z,4.63
2018-04-29T17:02:41.862Z,4.17
2018-04-29T17:07:43.194Z,5.23
2018-04-29T17:12:44.545Z,3.37
2018-04-29T17:17:46.628Z,6.03
2018-04-29T17:22:48.058Z,3.80
2018-04-29T17:27:49.450Z,8.40
2018-04-29T17:32:50.830Z,12.63
2018-04-29T17:37:52.179Z,9.20
2018-04-29T17:42:53.557Z,4.53
2018-04-29T17:47:54.884Z,7.77
2018-04-29T17:52:56.214Z,6.57
2018-04-29T17:57:57.550Z,7.07
2018-04-29T18:08:32.826Z,8.60
2018-04-29T18:13:34.132Z,5.20
2018-04-29T18:18:35.446Z,10.20
2018-04-29T18:23:36.779Z,10.60
2018-04-29T18:28:38.886Z,11.93
2018-04-29T18:33:40.945Z,6.80
2018-04-29T18:38:42.270Z,8.00
2018-04-29T18:43:44.387Z,11.57
2018-04-29T18:48:45.923Z,9.53
2018-04-29T18:53:47.261Z,9.10
2018-04-29T18:58:48.665Z,8.50
2018-04-29T19:03:50.751Z,10.83
2018-04-29T19:08:52.074Z,7.40
2018-04-29T19:13:54.121Z,10.67
2018-04-29T19:18:55.445Z,15.20
2018-04-29T19:23:56.785Z,12.10
2018-04-29T19:28:58.101Z,9.17
2018-04-29T19:34:06.461Z,9.97
2018-04-29T19:39:07.806Z,15.17
2018-04-29T19:44:09.112Z,16.50
2018-04-29T19:49:10.423Z,10.07
2018-04-29T19:54:11.754Z,9.23
2018-04-29T19:59:13.813Z,14.37
2018-04-29T20:04:15.130Z,10.30
2018-04-29T20:09:16.441Z,13.20
2018-04-29T20:14:18.482Z,13.20
2018-04-29T20:19:19.789Z,16.00
2018-04-29T20:24:21.094Z,15.43
2018-04-29T20:29:22.410Z,21.33
2018-04-29T20:34:24.473Z,10.43
2018-04-29T20:39:25.784Z,10.90
2018-04-29T20:44:27.085Z,14.03
2018-04-29T20:49:28.389Z,14.40
2018-04-29T20:54:30.428Z,22.10
2018-04-29T20:59:31.798Z,13.70
2018-04-29T21:04:33.164Z,10.00
2018-04-29T21:09:34.441Z,9.33
2018-04-29T21:14:35.745Z,9.27
2018-04-29T21:19:37.807Z,9.23
2018-04-29T21:24:39.127Z,7.80
2018-04-29T21:29:40.441Z,9.00
2018-04-29T21:34:42.470Z,6.77
2018-04-29T21:39:43.775Z,7.37
2018-04-29T21:44:45.074Z,10.33
2018-04-29T21:49:46.387Z,5.37
2018-04-29T21:54:47.705Z,9.10
2018-04-29T21:59:49.789Z,10.13
2018-04-29T22:04:51.101Z,12.50
2018-04-29T22:09:53.214Z,8.40
2018-04-29T22:14:54.530Z,7.47
2018-04-29T22:19:55.845Z,7.37
2018-04-29T22:24:57.158Z,5.60
2018-04-29T22:29:59.197Z,9.43
2018-04-29T22:35:00.502Z,6.80
2018-04-29T22:40:01.832Z,6.77
2018-04-29T22:45:03.152Z,11.80
2018-04-29T22:50:04.450Z,7.20
2018-04-29T22:55:05.762Z,6.20
2018-04-29T23:00:07.107Z,7.20
2018-04-29T23:05:09.165Z,7.73
2018-04-29T23:10:10.477Z,9.33
2018-04-29T23:15:11.781Z,10.53
2018-04-29T23:20:13.920Z,14.20
2018-04-29T23:25:15.170Z,8.67
2018-04-29T23:30:16.478Z,8.17
2018-04-29T23:35:18.531Z,5.93
2018-04-29T23:40:19.841Z,9.80
2018-04-29T23:45:21.137Z,6.60
2018-04-29T23:50:22.446Z,6.50
2018-04-29T23:55:24.538Z,7.17
